Time;durP1;ratioP1;P1;durP2;ratioP2;P2;SDS_P1;SDS_P2;PMS_P1;PMS_P2;Temp;Humidity;BMP_temperature;BMP_pressure;BME280_temperature;BME280_humidity;BME280_pressure;Samples;Min_cycle;Max_cycle;Signal;HPM_P1;HPM_P2
2023/06/25 00:00:58;;;;;;;8.80;5.70;;;19.90;99.90;;;;;;5030439;28;20552;-75
2023/06/25 00:03:23;;;;;;;7.75;5.68;;;19.90;99.90;;;;;;5030583;28;20120;-74
2023/06/25 00:05:49;;;;;;;8.55;6.35;;;19.90;99.90;;;;;;5030462;28;20047;-74
2023/06/25 00:08:16;;;;;;;6.93;5.95;;;19.80;99.90;;;;;;5030254;28;20040;-74
2023/06/25 00:10:41;;;;;;;8.32;6.60;;;19.80;99.90;;;;;;5045943;28;20043;-75
2023/06/25 00:13:07;;;;;;;7.88;6.07;;;19.70;99.90;;;;;;5046677;28;20041;-74
2023/06/25 00:15:33;;;;;;;6.00;5.40;;;19.70;99.90;;;;;;5030255;28;20064;-74
2023/06/25 00:17:58;;;;;;;7.35;5.03;;;19.60;99.90;;;;;;5030403;28;20038;-74
2023/06/25 00:20:24;;;;;;;7.38;5.97;;;19.60;99.90;;;;;;5030130;28;20504;-74
2023/06/25 00:22:50;;;;;;;7.25;5.75;;;19.60;99.90;;;;;;5030272;28;20241;-75
2023/06/25 00:25:17;;;;;;;7.63;5.88;;;19.60;99.90;;;;;;5030387;28;20041;-74
2023/06/25 00:27:47;;;;;;;6.70;5.45;;;19.60;99.90;;;;;;5029108;28;20404;-75
2023/06/25 00:30:14;;;;;;;7.80;6.70;;;19.50;99.90;;;;;;5029763;28;20085;-74
2023/06/25 00:32:40;;;;;;;7.82;6.07;;;19.40;99.90;;;;;;5030009;28;20045;-75
2023/06/25 00:35:06;;;;;;;6.90;5.78;;;19.40;99.90;;;;;;5030121;28;20045;-75
2023/06/25 00:37:36;;;;;;;8.27;6.18;;;19.40;99.90;;;;;;5030144;28;20044;-75
2023/06/25 00:40:03;;;;;;;7.75;5.80;;;19.40;99.90;;;;;;5046398;28;20033;-75
2023/06/25 00:42:42;;;;;;;6.57;5.75;;;19.40;99.90;;;;;;5046299;28;20044;-75
2023/06/25 00:45:12;;;;;;;6.10;5.30;;;19.40;99.90;;;;;;5029975;28;20119;-74
2023/06/25 00:47:41;;;;;;;8.25;5.70;;;19.40;99.90;;;;;;5029833;28;20036;-75
2023/06/25 00:50:11;;;;;;;9.95;5.90;;;19.30;99.90;;;;;;5029820;28;20041;-75
2023/06/25 00:52:37;;;;;;;6.97;5.65;;;19.30;99.90;;;;;;5045709;28;20382;-75
2023/06/25 00:55:03;;;;;;;7.40;6.03;;;19.20;99.90;;;;;;5029385;28;20172;-74
2023/06/25 00:57:29;;;;;;;7.93;5.88;;;19.20;99.90;;;;;;5045703;28;20465;-75
2023/06/25 00:59:57;;;;;;;7.95;5.78;;;19.20;99.90;;;;;;5029622;28;20054;-75
2023/06/25 01:02:46;;;;;;;8.57;5.90;;;19.20;99.90;;;;;;5045617;28;20041;-75
2023/06/25 01:05:31;;;;;;;8.50;6.05;;;19.10;99.90;;;;;;5028651;28;20156;-74
2023/06/25 01:07:59;;;;;;;10.35;6.07;;;19.10;99.90;;;;;;5028621;28;20086;-74
2023/06/25 01:10:25;;;;;;;7.28;5.55;;;19.10;99.90;;;;;;5029766;28;20045;-74
2023/06/25 01:12:52;;;;;;;6.30;5.20;;;19.10;99.90;;;;;;5029518;28;20057;-75
2023/06/25 01:15:17;;;;;;;6.70;5.45;;;19.00;99.90;;;;;;5029599;28;20037;-75
2023/06/25 01:17:43;;;;;;;6.05;5.10;;;19.00;99.90;;;;;;5030581;28;20041;-75
2023/06/25 01:20:13;;;;;;;6.18;4.90;;;19.00;99.90;;;;;;5029537;28;20096;-75
2023/06/25 01:22:40;;;;;;;6.82;5.50;;;18.90;99.90;;;;;;5045901;28;20038;-75
2023/06/25 01:25:07;;;;;;;7.68;5.30;;;18.90;99.90;;;;;;5046171;28;20033;-75
2023/06/25 01:27:34;;;;;;;5.97;4.93;;;18.90;99.90;;;;;;5029472;28;20088;-75
2023/06/25 01:30:00;;;;;;;8.18;4.90;;;18.90;99.90;;;;;;5046174;28;20412;-75
2023/06/25 01:32:25;;;;;;;5.65;3.75;;;18.90;99.90;;;;;;5045810;28;20053;-74
2023/06/25 01:34:51;;;;;;;4.43;3.55;;;18.80;99.90;;;;;;5029755;28;20136;-75
2023/06/25 01:37:17;;;;;;;6.20;4.70;;;18.80;99.90;;;;;;5029422;28;20041;-75
2023/06/25 01:39:53;;;;;;;7.95;6.32;;;18.80;99.90;;;;;;5045104;28;20489;-75
2023/06/25 01:42:19;;;;;;;9.82;6.57;;;18.80;99.90;;;;;;5028137;28;20037;-74
2023/06/25 01:44:45;;;;;;;10.15;7.18;;;18.80;99.90;;;;;;5029390;28;20097;-74
2023/06/25 01:47:10;;;;;;;9.25;7.63;;;18.70;99.90;;;;;;5029412;28;20059;-74
2023/06/25 01:49:36;;;;;;;9.38;7.60;;;18.80;99.90;;;;;;5029541;28;20453;-74
2023/06/25 01:52:02;;;;;;;11.73;7.68;;;18.80;99.90;;;;;;5045516;28;20089;-74
2023/06/25 01:54:28;;;;;;;10.45;7.85;;;18.70;99.90;;;;;;5029416;28;20410;-74
2023/06/25 01:56:55;;;;;;;11.88;7.95;;;18.70;99.90;;;;;;5046024;28;20433;-74
2023/06/25 01:59:20;;;;;;;8.82;7.25;;;18.70;99.90;;;;;;5046038;28;20405;-74
2023/06/25 02:01:46;;;;;;;8.18;6.90;;;18.60;99.90;;;;;;5045407;28;20041;-74
2023/06/25 02:04:11;;;;;;;10.50;6.80;;;18.60;99.90;;;;;;5049113;28;20475;-74
2023/06/25 02:06:37;;;;;;;9.23;6.38;;;18.50;99.90;;;;;;5032838;28;20037;-74
2023/06/25 02:09:02;;;;;;;9.07;6.22;;;18.50;99.90;;;;;;5032859;28;20455;-74
2023/06/25 02:11:28;;;;;;;8.73;6.07;;;18.40;99.90;;;;;;5049610;28;20042;-75
2023/06/25 02:13:54;;;;;;;6.32;5.60;;;18.40;99.90;;;;;;5048797;28;20037;-75
2023/06/25 02:16:19;;;;;;;6.35;5.30;;;18.30;99.90;;;;;;5032497;28;20483;-74
2023/06/25 02:18:45;;;;;;;6.70;5.18;;;18.20;99.90;;;;;;5032630;28;20055;-75
2023/06/25 02:21:10;;;;;;;5.50;4.97;;;18.10;99.90;;;;;;5048838;28;20034;-74
2023/06/25 02:23:36;;;;;;;6.07;5.47;;;18.10;99.90;;;;;;5032245;28;20041;-74
2023/06/25 02:26:01;;;;;;;6.55;5.85;;;18.00;99.90;;;;;;5048885;28;20030;-74
2023/06/25 02:28:27;;;;;;;6.50;5.43;;;18.00;99.90;;;;;;5032624;28;20041;-74
2023/06/25 02:30:52;;;;;;;7.10;5.93;;;17.90;99.90;;;;;;5048685;28;20045;-74
2023/06/25 02:33:18;;;;;;;5.95;4.57;;;17.90;99.90;;;;;;5048650;28;20042;-74
2023/06/25 02:35:43;;;;;;;6.32;4.45;;;17.90;99.90;;;;;;5032189;28;20041;-74
2023/06/25 02:38:09;;;;;;;5.00;4.10;;;17.90;99.90;;;;;;5032401;28;20386;-75
2023/06/25 02:40:35;;;;;;;4.97;4.03;;;17.80;99.90;;;;;;5048599;28;20041;-74
2023/06/25 02:43:01;;;;;;;6.20;4.72;;;17.90;99.90;;;;;;5048247;28;20052;-74
2023/06/25 02:45:26;;;;;;;6.40;5.38;;;17.80;99.90;;;;;;5030914;28;20037;-74
2023/06/25 02:47:52;;;;;;;7.45;5.68;;;17.80;99.90;;;;;;5014427;28;20043;-74
2023/06/25 02:50:17;;;;;;;9.65;6.97;;;17.80;99.90;;;;;;5031790;28;20450;-74
2023/06/25 02:52:44;;;;;;;8.90;7.05;;;17.80;99.90;;;;;;5030023;28;20049;-74
2023/06/25 02:55:10;;;;;;;12.82;7.28;;;17.80;99.90;;;;;;5030783;28;20037;-73
2023/06/25 02:57:35;;;;;;;9.85;7.50;;;17.80;99.90;;;;;;5031794;28;20567;-74
2023/06/25 03:00:01;;;;;;;9.35;7.30;;;17.80;99.90;;;;;;5031679;28;20045;-74
2023/06/25 03:02:27;;;;;;;10.15;7.55;;;17.80;99.90;;;;;;5031490;28;20128;-74
2023/06/25 03:04:53;;;;;;;8.45;6.82;;;17.80;99.90;;;;;;5030595;28;20125;-74
2023/06/25 03:07:18;;;;;;;11.65;7.60;;;17.90;99.90;;;;;;5029854;28;20382;-74
2023/06/25 03:09:44;;;;;;;13.27;7.85;;;17.80;99.90;;;;;;5030332;28;20049;-74
2023/06/25 03:12:10;;;;;;;11.48;8.20;;;17.90;99.90;;;;;;5031016;28;20272;-74
2023/06/25 03:14:36;;;;;;;12.15;9.18;;;17.90;99.90;;;;;;5030707;28;20084;-74
2023/06/25 03:17:03;;;;;;;13.68;8.90;;;17.90;99.90;;;;;;5030827;28;20073;-74
2023/06/25 03:19:29;;;;;;;11.55;8.93;;;17.90;99.90;;;;;;5029377;28;20087;-74
2023/06/25 03:21:55;;;;;;;12.20;9.48;;;17.90;99.90;;;;;;5046850;28;20069;-74
2023/06/25 03:24:20;;;;;;;12.00;9.30;;;17.90;99.90;;;;;;5047462;28;20555;-74
2023/06/25 03:26:46;;;;;;;11.68;9.40;;;17.90;99.90;;;;;;5030114;28;20038;-74
2023/06/25 03:29:11;;;;;;;11.57;8.70;;;17.90;99.90;;;;;;5031096;28;20069;-74
2023/06/25 03:31:37;;;;;;;13.32;9.23;;;17.90;99.90;;;;;;5030768;28;20098;-74
2023/06/25 03:34:02;;;;;;;12.52;9.07;;;17.90;99.90;;;;;;5046406;28;20107;-74
2023/06/25 03:36:28;;;;;;;11.82;8.70;;;17.90;99.90;;;;;;5030642;28;20496;-74
2023/06/25 03:38:54;;;;;;;14.52;8.60;;;17.90;99.90;;;;;;5031008;28;20460;-74
2023/06/25 03:41:20;;;;;;;12.82;9.13;;;17.90;99.90;;;;;;5032081;28;20051;-74
2023/06/25 03:43:45;;;;;;;11.63;9.10;;;17.90;99.90;;;;;;5030697;28;20037;-75
2023/06/25 03:46:11;;;;;;;11.68;9.35;;;18.00;99.90;;;;;;5047347;28;20350;-74
2023/06/25 03:48:37;;;;;;;12.70;9.02;;;18.00;99.90;;;;;;5030877;28;20040;-74
2023/06/25 03:51:02;;;;;;;13.25;9.10;;;18.00;99.90;;;;;;5030647;28;20069;-74
2023/06/25 03:53:29;;;;;;;10.50;8.32;;;18.00;99.90;;;;;;5046749;28;20126;-74
2023/06/25 03:55:54;;;;;;;12.40;9.05;;;18.00;99.90;;;;;;5028684;28;20041;-74
2023/06/25 03:58:20;;;;;;;10.73;8.52;;;18.10;99.90;;;;;;5029791;28;20115;-74
2023/06/25 04:00:46;;;;;;;12.57;9.38;;;18.10;99.90;;;;;;5047111;28;20041;-74
2023/06/25 04:03:11;;;;;;;12.20;8.73;;;18.10;99.90;;;;;;5027068;28;20046;-74
2023/06/25 04:05:37;;;;;;;11.50;8.32;;;18.20;99.90;;;;;;5011144;28;20466;-74
2023/06/25 04:08:03;;;;;;;10.48;8.30;;;18.20;99.90;;;;;;5010768;28;20120;-74
2023/06/25 04:10:29;;;;;;;12.55;8.38;;;18.20;99.90;;;;;;5022058;28;20052;-74
2023/06/25 04:12:54;;;;;;;10.75;8.25;;;18.20;99.90;;;;;;5030012;28;20037;-74
2023/06/25 04:15:20;;;;;;;11.98;8.35;;;18.20;99.90;;;;;;5030467;28;20045;-74
2023/06/25 04:17:47;;;;;;;12.02;8.85;;;18.20;99.90;;;;;;5030316;28;20072;-74
2023/06/25 04:20:13;;;;;;;12.30;8.55;;;18.20;99.90;;;;;;5030216;28;20056;-74
2023/06/25 04:22:38;;;;;;;12.77;9.00;;;18.30;99.90;;;;;;5029937;28;20037;-74
2023/06/25 04:25:05;;;;;;;12.80;8.57;;;18.30;99.90;;;;;;5029609;28;20071;-74
2023/06/25 04:27:30;;;;;;;11.45;8.60;;;18.40;99.90;;;;;;5046805;28;20110;-74
2023/06/25 04:29:56;;;;;;;13.00;9.18;;;18.40;99.90;;;;;;5029852;28;20041;-74
2023/06/25 04:32:21;;;;;;;11.95;8.95;;;18.50;99.90;;;;;;5029790;28;20408;-74
2023/06/25 04:34:47;;;;;;;12.95;9.00;;;18.60;99.90;;;;;;5030491;28;20042;-74
2023/06/25 04:37:12;;;;;;;11.88;8.95;;;18.60;99.90;;;;;;5029963;28;20041;-74
2023/06/25 04:39:41;;;;;;;13.02;8.77;;;18.70;99.90;;;;;;5045786;28;20052;-74
2023/06/25 04:42:07;;;;;;;11.82;8.95;;;18.70;99.90;;;;;;5044831;28;20147;-74
2023/06/25 04:44:32;;;;;;;11.35;8.73;;;18.80;99.90;;;;;;5045440;28;20592;-75
2023/06/25 04:46:58;;;;;;;11.40;8.60;;;18.90;99.90;;;;;;5046198;28;20041;-74
2023/06/25 04:49:24;;;;;;;11.18;8.73;;;19.00;99.90;;;;;;5030036;28;20493;-75
2023/06/25 04:51:49;;;;;;;10.48;8.00;;;19.00;99.90;;;;;;5029576;28;20083;-74
2023/06/25 04:54:15;;;;;;;10.18;8.23;;;19.10;99.90;;;;;;5029966;28;20400;-74
2023/06/25 04:56:40;;;;;;;10.70;8.25;;;19.20;99.90;;;;;;5029944;28;20108;-74
2023/06/25 04:59:06;;;;;;;10.85;8.55;;;19.30;99.90;;;;;;5030115;28;20069;-74
2023/06/25 05:01:32;;;;;;;12.02;8.50;;;19.30;99.90;;;;;;5046269;28;20053;-74
2023/06/25 05:03:58;;;;;;;10.85;8.38;;;19.40;99.90;;;;;;5046103;28;20042;-75
2023/06/25 05:06:24;;;;;;;9.85;7.95;;;19.50;99.90;;;;;;5029643;28;20044;-74
2023/06/25 05:08:49;;;;;;;13.80;8.70;;;19.60;99.90;;;;;;5029463;28;20045;-74
2023/06/25 05:11:15;;;;;;;10.00;8.23;;;19.60;99.90;;;;;;5029700;28;20493;-74
2023/06/25 05:13:41;;;;;;;10.57;8.00;;;19.70;99.90;;;;;;5046238;28;20072;-74
2023/06/25 05:16:06;;;;;;;10.77;8.20;;;19.80;99.90;;;;;;5029625;28;20057;-74
2023/06/25 05:18:32;;;;;;;12.23;7.95;;;19.80;99.90;;;;;;5029477;28;20046;-74
2023/06/25 05:20:57;;;;;;;9.77;7.97;;;19.90;99.90;;;;;;5029403;28;20048;-74
2023/06/25 05:23:24;;;;;;;9.52;7.47;;;20.00;99.90;;;;;;5046000;28;20115;-74
2023/06/25 05:25:50;;;;;;;11.73;7.78;;;20.00;99.90;;;;;;5029871;28;20084;-75
2023/06/25 05:28:15;;;;;;;10.73;7.38;;;20.10;99.90;;;;;;5029370;28;20076;-74
2023/06/25 05:30:41;;;;;;;11.57;7.47;;;20.20;99.90;;;;;;5029181;28;20616;-74
2023/06/25 05:33:06;;;;;;;10.10;7.25;;;20.30;99.90;;;;;;5029376;28;20041;-74
2023/06/25 05:35:32;;;;;;;11.23;7.40;;;20.40;99.90;;;;;;5046001;28;20037;-74
2023/06/25 05:37:58;;;;;;;9.55;7.05;;;20.50;99.90;;;;;;5029278;28;20041;-74
2023/06/25 05:40:27;;;;;;;8.93;6.68;;;20.60;99.90;;;;;;5048836;28;20103;-74
2023/06/25 05:42:54;;;;;;;8.27;6.30;;;20.70;99.90;;;;;;5033242;28;20038;-74
2023/06/25 05:45:19;;;;;;;7.63;5.97;;;20.80;99.90;;;;;;5049636;28;20041;-75
2023/06/25 05:47:45;;;;;;;8.65;6.72;;;20.90;99.90;;;;;;5033317;28;20083;-75
2023/06/25 05:50:11;;;;;;;7.93;5.85;;;21.00;99.90;;;;;;5049585;28;20087;-75
2023/06/25 05:52:36;;;;;;;8.18;5.65;;;21.10;99.90;;;;;;5032620;28;20497;-75
2023/06/25 05:55:02;;;;;;;7.25;5.57;;;21.10;99.90;;;;;;5032952;28;20042;-75
2023/06/25 05:57:27;;;;;;;9.25;6.25;;;21.20;99.90;;;;;;5032967;28;20500;-75
2023/06/25 05:59:53;;;;;;;7.97;5.50;;;21.30;99.90;;;;;;5049564;28;20050;-75
2023/06/25 06:02:18;;;;;;;8.20;5.35;;;21.40;99.90;;;;;;5032262;28;20041;-75
2023/06/25 06:04:44;;;;;;;7.90;5.50;;;21.50;99.90;;;;;;5031533;28;20102;-75
2023/06/25 06:07:10;;;;;;;8.75;5.93;;;21.50;99.90;;;;;;5048660;28;20067;-74
2023/06/25 06:09:35;;;;;;;8.13;5.50;;;21.60;99.90;;;;;;5032793;28;20418;-75
2023/06/25 06:12:01;;;;;;;6.13;4.88;;;21.70;99.90;;;;;;5048949;28;20029;-75
2023/06/25 06:14:26;;;;;;;6.85;4.53;;;21.80;99.90;;;;;;5031791;28;20041;-74
2023/06/25 06:16:52;;;;;;;7.93;4.45;;;21.90;99.90;;;;;;5031841;28;20045;-75
2023/06/25 06:19:18;;;;;;;6.47;4.40;;;22.10;99.90;;;;;;5033838;28;20037;-75
2023/06/25 06:21:43;;;;;;;6.80;5.00;;;22.20;99.90;;;;;;5031892;28;20042;-75
2023/06/25 06:24:09;;;;;;;6.45;4.60;;;22.30;99.90;;;;;;5049099;28;20099;-75
2023/06/25 06:26:35;;;;;;;5.30;4.70;;;22.30;99.90;;;;;;5049191;28;20033;-75
2023/06/25 06:29:03;;;;;;;5.65;4.40;;;22.40;99.90;;;;;;5048845;28;20104;-75
2023/06/25 06:31:32;;;;;;;7.05;4.30;;;22.60;99.90;;;;;;5049057;28;20091;-75
2023/06/25 06:33:58;;;;;;;5.38;4.28;;;22.70;99.90;;;;;;5046980;28;20049;-75
2023/06/25 06:36:23;;;;;;;6.55;4.93;;;22.70;99.90;;;;;;5032005;28;20038;-75
2023/06/25 06:38:50;;;;;;;7.18;4.82;;;22.80;99.90;;;;;;5048841;28;20575;-75
2023/06/25 06:41:15;;;;;;;6.95;5.00;;;23.00;99.90;;;;;;5032065;28;20050;-76
2023/06/25 06:43:41;;;;;;;6.47;5.00;;;23.00;99.90;;;;;;5031704;28;20407;-76
2023/06/25 06:46:06;;;;;;;6.00;5.35;;;23.20;99.90;;;;;;5032054;28;20401;-76
2023/06/25 06:48:32;;;;;;;8.35;5.40;;;23.30;99.90;;;;;;5048155;28;20452;-76
2023/06/25 06:50:57;;;;;;;6.57;5.55;;;23.30;99.90;;;;;;5032159;28;20073;-75
2023/06/25 06:53:23;;;;;;;7.85;5.68;;;23.40;99.90;;;;;;5048126;28;20532;-76
2023/06/25 06:55:48;;;;;;;7.88;5.50;;;23.50;99.90;;;;;;5048417;28;20183;-76
2023/06/25 06:58:14;;;;;;;7.90;5.72;;;23.60;99.90;;;;;;5032078;28;20076;-76
2023/06/25 07:00:39;;;;;;;11.10;6.05;;;23.70;99.90;;;;;;5047643;28;20046;-76
2023/06/25 07:03:05;;;;;;;7.20;6.22;;;23.70;99.90;;;;;;5047010;28;20517;-76
2023/06/25 07:05:31;;;;;;;8.23;6.05;;;23.90;99.90;;;;;;5030794;28;20037;-75
2023/06/25 07:07:56;;;;;;;8.70;7.10;;;24.00;99.90;;;;;;5048119;28;20037;-76
2023/06/25 07:10:22;;;;;;;8.63;6.97;;;23.90;99.90;;;;;;5048010;28;20049;-76
2023/06/25 07:12:47;;;;;;;8.40;7.25;;;24.10;99.90;;;;;;5031353;28;20128;-76
2023/06/25 07:15:13;;;;;;;8.25;6.72;;;24.10;99.90;;;;;;5031385;28;20505;-76
2023/06/25 07:17:39;;;;;;;9.07;7.10;;;24.20;99.90;;;;;;5031300;28;20425;-76
2023/06/25 07:20:05;;;;;;;8.73;7.88;;;24.40;99.90;;;;;;5047880;28;20045;-76
2023/06/25 07:22:33;;;;;;;9.15;7.70;;;24.40;99.90;;;;;;5047823;28;20456;-76
2023/06/25 07:24:59;;;;;;;8.18;6.80;;;24.50;99.90;;;;;;5048054;28;20120;-76
2023/06/25 07:27:24;;;;;;;11.18;7.25;;;24.50;99.90;;;;;;5031392;28;20077;-76
2023/06/25 07:29:50;;;;;;;9.70;8.02;;;24.60;99.90;;;;;;5047617;28;20037;-77
2023/06/25 07:32:15;;;;;;;8.88;7.28;;;24.70;99.90;;;;;;5030950;28;20041;-76
2023/06/25 07:34:41;;;;;;;8.15;6.97;;;24.70;99.90;;;;;;5047589;28;20456;-76
2023/06/25 07:37:07;;;;;;;8.10;7.30;;;24.90;99.90;;;;;;5032247;28;20466;-75
2023/06/25 07:39:33;;;;;;;11.55;8.27;;;25.00;99.90;;;;;;5046716;28;20408;-76
2023/06/25 07:41:59;;;;;;;10.77;8.65;;;25.10;99.90;;;;;;5030533;28;20048;-76
2023/06/25 07:44:25;;;;;;;9.98;8.60;;;25.20;99.90;;;;;;5030062;28;20042;-76
2023/06/25 07:46:50;;;;;;;9.27;8.32;;;25.30;99.90;;;;;;5030474;28;20038;-76
2023/06/25 07:49:16;;;;;;;8.18;7.38;;;25.40;99.90;;;;;;5029159;28;20183;-76
2023/06/25 07:51:47;;;;;;;10.70;8.38;;;25.50;99.90;;;;;;5030488;28;20515;-76
2023/06/25 07:54:12;;;;;;;9.70;7.30;;;25.60;99.90;;;;;;5030626;28;20526;-76
2023/06/25 07:56:40;;;;;;;11.93;7.45;;;25.70;99.90;;;;;;5030192;28;20076;-76
2023/06/25 07:59:05;;;;;;;8.63;7.75;;;25.90;99.90;;;;;;5030713;28;20045;-75
2023/06/25 08:01:31;;;;;;;13.43;7.78;;;25.90;99.90;;;;;;5045441;28;20041;-76
2023/06/25 08:03:57;;;;;;;9.55;6.95;;;26.00;99.90;;;;;;5046850;28;20036;-76
2023/06/25 08:06:23;;;;;;;9.32;7.78;;;26.20;99.90;;;;;;5030525;28;20076;-76
2023/06/25 08:08:48;;;;;;;9.52;8.45;;;26.20;99.90;;;;;;5030401;28;20118;-76
2023/06/25 08:11:14;;;;;;;9.10;7.85;;;26.30;99.90;;;;;;5047124;28;20611;-76
2023/06/25 08:13:39;;;;;;;9.35;8.25;;;26.40;99.90;;;;;;5030136;28;20068;-75
2023/06/25 08:16:05;;;;;;;8.90;7.63;;;26.50;99.90;;;;;;5029964;28;20426;-76
2023/06/25 08:18:31;;;;;;;9.10;8.18;;;26.70;99.90;;;;;;5046063;28;20041;-76
2023/06/25 08:20:56;;;;;;;8.50;7.60;;;26.70;99.90;;;;;;5029305;28;20052;-76
2023/06/25 08:23:22;;;;;;;10.15;8.05;;;26.70;99.90;;;;;;5046630;28;20124;-75
2023/06/25 08:25:47;;;;;;;8.82;7.93;;;26.80;99.90;;;;;;5030202;28;20036;-76
2023/06/25 08:28:13;;;;;;;7.28;6.40;;;26.80;99.90;;;;;;5046669;28;20505;-76
2023/06/25 08:30:39;;;;;;;7.90;7.10;;;26.90;99.90;;;;;;5029787;28;20523;-75
2023/06/25 08:33:05;;;;;;;8.82;7.47;;;27.10;99.90;;;;;;5029828;28;20091;-76
2023/06/25 08:35:30;;;;;;;10.05;8.35;;;27.10;99.90;;;;;;5029324;28;20075;-76
2023/06/25 08:37:56;;;;;;;9.85;8.90;;;27.20;99.90;;;;;;5031474;28;20486;-76
2023/06/25 08:40:22;;;;;;;12.25;8.65;;;27.20;99.90;;;;;;5031110;28;20048;-76
2023/06/25 08:42:49;;;;;;;8.23;7.30;;;26.90;99.90;;;;;;5046215;28;20045;-76
2023/06/25 08:45:14;;;;;;;7.80;7.03;;;27.00;99.90;;;;;;5030072;28;20069;-76
2023/06/25 08:47:41;;;;;;;7.40;6.53;;;27.10;99.90;;;;;;5029942;28;20084;-75
2023/06/25 08:50:11;;;;;;;9.27;6.40;;;27.20;99.90;;;;;;5029733;28;20053;-76
2023/06/25 08:52:38;;;;;;;9.60;6.78;;;27.20;99.90;;;;;;5030985;28;20405;-76
2023/06/25 08:55:09;;;;;;;8.43;6.47;;;27.30;99.90;;;;;;5029859;28;20044;-77
2023/06/25 08:57:36;;;;;;;7.57;6.22;;;27.40;99.90;;;;;;5045936;28;20125;-76
2023/06/25 09:00:02;;;;;;;7.53;6.68;;;27.40;99.90;;;;;;5028561;28;20076;-76
2023/06/25 09:02:28;;;;;;;7.30;6.20;;;27.40;99.90;;;;;;5028359;28;20029;-76
2023/06/25 09:05:03;;;;;;;9.27;6.68;;;27.40;99.90;;;;;;5046465;28;20566;-76
2023/06/25 09:07:28;;;;;;;7.18;6.10;;;27.30;99.90;;;;;;5030043;28;20457;-76
2023/06/25 09:09:54;;;;;;;7.45;6.75;;;27.40;99.90;;;;;;5046359;28;20073;-76
2023/06/25 09:12:23;;;;;;;6.47;5.63;;;27.50;99.90;;;;;;5031663;28;20084;-76
2023/06/25 09:14:49;;;;;;;7.07;5.72;;;27.60;99.90;;;;;;5050488;28;20041;-76
2023/06/25 09:17:23;;;;;;;6.20;5.43;;;27.70;99.90;;;;;;5049933;28;20520;-76
2023/06/25 09:19:48;;;;;;;5.95;5.20;;;27.70;99.90;;;;;;5033858;28;20408;-76
2023/06/25 09:22:14;;;;;;;6.50;4.82;;;27.70;99.90;;;;;;5049881;28;20170;-76
2023/06/25 09:24:44;;;;;;;5.03;4.53;;;27.90;99.90;;;;;;5050336;28;20045;-76
2023/06/25 09:27:10;;;;;;;5.72;5.10;;;27.90;99.90;;;;;;5033567;28;20037;-76
2023/06/25 09:29:37;;;;;;;6.03;5.43;;;27.90;99.90;;;;;;5050211;28;20437;-77
2023/06/25 09:32:10;;;;;;;5.22;4.72;;;28.00;99.90;;;;;;5034636;28;20041;-77
2023/06/25 09:34:36;;;;;;;5.03;4.00;;;28.10;99.90;;;;;;5033507;28;20079;-76
2023/06/25 09:37:03;;;;;;;6.40;4.32;;;28.00;99.90;;;;;;5033202;28;20111;-76
2023/06/25 09:39:30;;;;;;;5.65;4.43;;;28.10;99.90;;;;;;5050011;28;20045;-76
2023/06/25 09:41:56;;;;;;;6.53;4.70;;;28.20;99.90;;;;;;5049915;28;20426;-75
2023/06/25 09:44:22;;;;;;;5.57;4.78;;;28.30;99.90;;;;;;5033730;28;20048;-76
2023/06/25 09:46:50;;;;;;;7.65;5.47;;;28.40;99.90;;;;;;5050278;28;20087;-76
2023/06/25 09:49:19;;;;;;;7.88;5.13;;;28.50;99.90;;;;;;5017220;28;20431;-77
2023/06/25 09:51:54;;;;;;;5.28;4.78;;;28.60;99.90;;;;;;5033230;28;20084;-77
2023/06/25 09:54:22;;;;;;;5.00;4.18;;;28.70;99.90;;;;;;5033024;28;20049;-76
2023/06/25 09:56:49;;;;;;;8.02;5.72;;;28.80;99.90;;;;;;5033202;28;20452;-76
2023/06/25 09:59:16;;;;;;;6.40;5.15;;;28.80;99.90;;;;;;5032846;28;20049;-76
2023/06/25 10:01:41;;;;;;;5.60;4.28;;;28.70;99.90;;;;;;5031664;28;20459;-76
2023/06/25 10:04:07;;;;;;;4.38;3.97;;;28.70;99.90;;;;;;5031051;28;20041;-76
2023/06/25 10:06:35;;;;;;;4.63;3.85;;;28.70;99.80;;;;;;5032559;28;20048;-76
2023/06/25 10:09:02;;;;;;;5.63;4.90;;;28.70;99.80;;;;;;5049496;28;20072;-76
2023/06/25 10:11:28;;;;;;;5.60;5.10;;;28.80;99.60;;;;;;5049234;28;20072;-76
2023/06/25 10:13:54;;;;;;;4.95;4.45;;;28.90;99.90;;;;;;5047876;28;20049;-76
2023/06/25 10:16:20;;;;;;;5.88;4.63;;;29.00;99.90;;;;;;5049358;28;20650;-77
2023/06/25 10:18:47;;;;;;;5.55;4.40;;;29.00;99.80;;;;;;5032884;28;20041;-77
2023/06/25 10:21:21;;;;;;;5.93;4.20;;;29.00;99.10;;;;;;5032941;28;20042;-77
2023/06/25 10:23:56;;;;;;;4.68;3.97;;;29.00;98.80;;;;;;5032000;28;20033;-77
2023/06/25 10:26:29;;;;;;;5.25;3.85;;;29.10;97.80;;;;;;5032844;28;20034;-77
2023/06/25 10:28:55;;;;;;;;;;;29.20;98.30;;;;;;5049231;28;20037;-77
2023/06/25 10:31:21;;;;;;;4.50;3.70;;;29.20;97.90;;;;;;5032136;28;20411;-77
2023/06/25 10:33:47;;;;;;;7.07;4.30;;;29.30;98.20;;;;;;5032057;28;20045;-76
2023/06/25 10:36:12;;;;;;;6.32;3.80;;;29.30;97.60;;;;;;5032351;28;20124;-77
2023/06/25 10:38:39;;;;;;;4.20;3.65;;;29.40;97.80;;;;;;5049147;28;20048;-77
2023/06/25 10:41:04;;;;;;;5.00;3.90;;;29.60;97.60;;;;;;5033068;28;20042;-76
2023/06/25 10:43:30;;;;;;;4.60;3.53;;;29.70;97.50;;;;;;5032216;28;20041;-78
2023/06/25 10:45:57;;;;;;;4.15;3.65;;;29.80;97.40;;;;;;5032522;28;20043;-77
2023/06/25 10:48:24;;;;;;;3.70;3.40;;;29.90;97.30;;;;;;5049391;28;20038;-77
2023/06/25 10:50:51;;;;;;;4.20;3.08;;;30.00;96.80;;;;;;5032152;28;20048;-77
2023/06/25 10:53:19;;;;;;;4.00;3.60;;;30.10;96.80;;;;;;5033086;28;20046;-76
2023/06/25 10:55:46;;;;;;;4.10;3.53;;;30.20;96.80;;;;;;5033083;28;20378;-77
2023/06/25 10:58:20;;;;;;;4.68;3.95;;;30.20;96.80;;;;;;5031289;28;20042;-77
2023/06/25 11:00:55;;;;;;;4.75;3.92;;;30.10;96.00;;;;;;5030283;28;20373;-76
2023/06/25 11:03:21;;;;;;;4.28;3.70;;;30.20;96.40;;;;;;5047539;28;20125;-76
2023/06/25 11:05:47;;;;;;;4.18;3.45;;;30.30;96.30;;;;;;5032175;28;20119;-76
2023/06/25 11:08:13;;;;;;;4.10;3.53;;;30.40;96.60;;;;;;5033187;28;20033;-77
2023/06/25 11:10:40;;;;;;;4.75;3.60;;;30.60;96.40;;;;;;5032571;28;20033;-77
2023/06/25 11:13:09;;;;;;;4.40;3.35;;;30.70;96.50;;;;;;5033336;28;20045;-78
2023/06/25 11:15:35;;;;;;;7.30;3.70;;;30.80;95.80;;;;;;5032197;28;20107;-78
2023/06/25 11:18:03;;;;;;;4.18;3.33;;;30.90;95.60;;;;;;5032058;28;20064;-79
2023/06/25 11:20:29;;;;;;;3.83;3.38;;;30.90;95.60;;;;;;5032975;28;20045;-78
2023/06/25 11:22:55;;;;;;;3.83;3.25;;;31.00;95.20;;;;;;5048908;28;20037;-78
2023/06/25 11:25:21;;;;;;;4.88;3.33;;;31.20;95.10;;;;;;5032427;28;20128;-78
2023/06/25 11:27:48;;;;;;;3.95;3.15;;;31.30;95.00;;;;;;5048680;28;20535;-77
2023/06/25 11:30:14;;;;;;;3.78;2.92;;;31.30;94.30;;;;;;5031631;28;20079;-77
2023/06/25 11:32:40;;;;;;;3.70;3.00;;;31.20;94.10;;;;;;5048193;28;20052;-78
2023/06/25 11:35:13;;;;;;;3.67;2.80;;;31.30;94.00;;;;;;5030547;28;20493;-77
2023/06/25 11:37:42;;;;;;;;;;;31.40;93.20;;;;;;5032018;28;20408;-78
2023/06/25 11:40:19;;;;;;;3.63;2.80;;;31.40;93.60;;;;;;5031269;28;19921;-78
2023/06/25 11:42:44;;;;;;;3.22;2.60;;;31.60;93.00;;;;;;5048119;28;20037;-78
2023/06/25 11:45:10;;;;;;;2.90;2.60;;;31.80;93.10;;;;;;5050440;28;20091;-78
2023/06/25 11:47:35;;;;;;;3.10;2.63;;;32.10;92.80;;;;;;5016704;28;20424;-80
2023/06/25 11:50:02;;;;;;;3.45;2.75;;;32.20;93.10;;;;;;5021028;28;20041;-78
2023/06/25 11:52:28;;;;;;;3.20;2.42;;;32.30;92.50;;;;;;5030399;28;20037;-78
2023/06/25 11:54:53;;;;;;;3.13;2.65;;;32.40;91.90;;;;;;5030392;28;20382;-78
2023/06/25 11:57:25;;;;;;;4.10;2.53;;;32.50;91.20;;;;;;5071624;28;20386;-76
2023/06/25 11:59:51;;;;;;;4.40;2.50;;;32.60;91.10;;;;;;5067396;28;20044;-76
2023/06/25 12:02:16;;;;;;;3.75;2.78;;;32.80;91.10;;;;;;5066915;28;20040;-77
2023/06/25 12:04:42;;;;;;;3.10;2.63;;;32.60;90.00;;;;;;5050611;28;20044;-77
2023/06/25 12:07:08;;;;;;;4.32;2.63;;;32.70;90.20;;;;;;5067069;28;20092;-77
2023/06/25 12:09:33;;;;;;;3.22;2.70;;;32.80;90.50;;;;;;5050249;28;20561;-76
2023/06/25 12:11:59;;;;;;;3.92;2.72;;;33.00;89.90;;;;;;5049907;28;20032;-76
2023/06/25 12:14:24;;;;;;;4.05;2.60;;;32.90;88.70;;;;;;5066823;28;20037;-77
2023/06/25 12:16:50;;;;;;;3.35;2.72;;;33.10;89.00;;;;;;5066862;28;20412;-77
2023/06/25 12:19:15;;;;;;;3.38;2.70;;;33.10;88.10;;;;;;5066276;28;20500;-76
2023/06/25 12:21:41;;;;;;;4.28;3.20;;;33.30;88.60;;;;;;5083375;28;20025;-77
2023/06/25 12:24:06;;;;;;;6.93;3.10;;;33.50;88.20;;;;;;5083621;28;20131;-78
2023/06/25 12:26:32;;;;;;;5.32;2.95;;;33.50;89.00;;;;;;5079247;28;20140;-77
2023/06/25 12:28:58;;;;;;;3.75;3.00;;;33.50;87.30;;;;;;5063148;28;20044;-77
2023/06/25 12:31:23;;;;;;;4.35;3.00;;;33.50;85.90;;;;;;5063145;28;20496;-77
2023/06/25 12:33:49;;;;;;;4.18;2.70;;;33.70;85.60;;;;;;5063936;28;20519;-76
2023/06/25 12:36:15;;;;;;;3.28;2.80;;;33.90;86.00;;;;;;5066457;28;20076;-78
2023/06/25 12:38:40;;;;;;;4.28;2.70;;;33.80;84.50;;;;;;5064644;28;20036;-77
2023/06/25 12:41:06;;;;;;;3.20;2.80;;;34.00;84.20;;;;;;5063281;28;20036;-77